sensor_id;sensor_type;location;lat;lon;timestamp;pressure;altitude;pressure_sealevel;temperature;humidity
69060;BME280;56135;37.534;-122.308;2022-09-12T00:01:15;101384.13;;;26.85;30.48
69060;BME280;56135;37.534;-122.308;2022-09-12T00:03:41;101386.91;;;26.70;30.16
69060;BME280;56135;37.534;-122.308;2022-09-12T00:06:18;101392.66;;;26.66;29.94
69060;BME280;56135;37.534;-122.308;2022-09-12T00:08:44;101387.78;;;26.71;31.05
69060;BME280;56135;37.534;-122.308;2022-09-12T00:11:11;101389.81;;;26.67;32.82
69060;BME280;56135;37.534;-122.308;2022-09-12T00:13:39;101381.63;;;26.69;33.38
69060;BME280;56135;37.534;-122.308;2022-09-12T00:16:06;101379.91;;;26.80;34.50
69060;BME280;56135;37.534;-122.308;2022-09-12T00:18:33;101373.28;;;26.85;32.88
69060;BME280;56135;37.534;-122.308;2022-09-12T00:21:03;101370.78;;;26.69;36.48
69060;BME280;56135;37.534;-122.308;2022-09-12T00:23:30;101373.69;;;26.66;33.97
69060;BME280;56135;37.534;-122.308;2022-09-12T00:25:56;101377.81;;;26.58;34.71
69060;BME280;56135;37.534;-122.308;2022-09-12T00:28:23;101380.41;;;26.47;33.99
69060;BME280;56135;37.534;-122.308;2022-09-12T00:30:49;101382.47;;;26.43;34.84
69060;BME280;56135;37.534;-122.308;2022-09-12T00:33:16;101377.38;;;26.39;36.18
69060;BME280;56135;37.534;-122.308;2022-09-12T00:35:49;101383.31;;;26.31;36.70
69060;BME280;56135;37.534;-122.308;2022-09-12T00:38:18;101387.88;;;26.30;36.69
69060;BME280;56135;37.534;-122.308;2022-09-12T00:40:45;101393.06;;;26.21;36.21
69060;BME280;56135;37.534;-122.308;2022-09-12T00:43:41;101392.41;;;26.17;36.02
69060;BME280;56135;37.534;-122.308;2022-09-12T00:46:28;101387.19;;;26.14;37.40
69060;BME280;56135;37.534;-122.308;2022-09-12T00:49:00;101389.06;;;25.99;38.14
69060;BME280;56135;37.534;-122.308;2022-09-12T00:51:29;101392.97;;;25.95;37.53
69060;BME280;56135;37.534;-122.308;2022-09-12T00:53:57;101395.66;;;25.68;38.49
69060;BME280;56135;37.534;-122.308;2022-09-12T00:56:25;101393.28;;;25.63;39.42
69060;BME280;56135;37.534;-122.308;2022-09-12T00:59:21;101392.81;;;25.56;39.94
69060;BME280;56135;37.534;-122.308;2022-09-12T01:01:50;101394.19;;;25.49;39.62
69060;BME280;56135;37.534;-122.308;2022-09-12T01:04:19;101404.06;;;25.21;40.51
69060;BME280;56135;37.534;-122.308;2022-09-12T01:06:47;101400.69;;;25.18;40.65
69060;BME280;56135;37.534;-122.308;2022-09-12T01:09:21;101403.69;;;25.13;41.17
69060;BME280;56135;37.534;-122.308;2022-09-12T01:11:48;101408.50;;;25.08;41.29
69060;BME280;56135;37.534;-122.308;2022-09-12T01:14:16;101408.03;;;25.01;41.74
69060;BME280;56135;37.534;-122.308;2022-09-12T01:16:43;101406.31;;;25.00;41.42
69060;BME280;56135;37.534;-122.308;2022-09-12T01:35:59;101405.63;;;24.37;43.42
69060;BME280;56135;37.534;-122.308;2022-09-12T01:38:24;101408.41;;;24.21;45.14
69060;BME280;56135;37.534;-122.308;2022-09-12T01:41:08;101405.66;;;24.07;45.45
69060;BME280;56135;37.534;-122.308;2022-09-12T01:44:03;101409.84;;;23.96;45.58
69060;BME280;56135;37.534;-122.308;2022-09-12T01:46:47;101411.16;;;23.73;46.27
69060;BME280;56135;37.534;-122.308;2022-09-12T01:49:20;101413.88;;;23.73;46.38
69060;BME280;56135;37.534;-122.308;2022-09-12T01:52:11;101413.03;;;23.57;46.57
69060;BME280;56135;37.534;-122.308;2022-09-12T01:55:07;101418.56;;;23.38;46.80
69060;BME280;56135;37.534;-122.308;2022-09-12T01:58:04;101418.31;;;23.26;47.34
69060;BME280;56135;37.534;-122.308;2022-09-12T02:00:34;101424.59;;;23.09;47.98
69060;BME280;56135;37.534;-122.308;2022-09-12T02:03:08;101418.69;;;23.03;48.22
69060;BME280;56135;37.534;-122.308;2022-09-12T02:05:40;101428.00;;;22.79;49.49
69060;BME280;56135;37.534;-122.308;2022-09-12T02:08:15;101434.03;;;22.67;50.08
69060;BME280;56135;37.534;-122.308;2022-09-12T02:11:02;101428.97;;;22.61;50.33
69060;BME280;56135;37.534;-122.308;2022-09-12T02:13:39;101435.56;;;22.55;50.16
69060;BME280;56135;37.534;-122.308;2022-09-12T02:18:49;101440.28;;;22.32;51.80
69060;BME280;56135;37.534;-122.308;2022-09-12T02:21:18;101438.81;;;22.08;52.51
69060;BME280;56135;37.534;-122.308;2022-09-12T02:23:48;101440.22;;;21.97;52.79
69060;BME280;56135;37.534;-122.308;2022-09-12T02:26:22;101453.19;;;21.89;53.40
69060;BME280;56135;37.534;-122.308;2022-09-12T02:28:50;101449.16;;;21.80;53.83
69060;BME280;56135;37.534;-122.308;2022-09-12T02:31:19;101450.91;;;21.62;55.25
69060;BME280;56135;37.534;-122.308;2022-09-12T02:39:25;101458.78;;;21.27;56.51
69060;BME280;56135;37.534;-122.308;2022-09-12T02:41:54;101453.53;;;21.24;56.19
69060;BME280;56135;37.534;-122.308;2022-09-12T02:44:22;101456.66;;;21.15;56.75
69060;BME280;56135;37.534;-122.308;2022-09-12T02:46:56;101458.09;;;21.03;57.77
69060;BME280;56135;37.534;-122.308;2022-09-12T02:49:24;101464.88;;;20.91;58.03
69060;BME280;56135;37.534;-122.308;2022-09-12T02:51:51;101473.09;;;20.88;58.56
69060;BME280;56135;37.534;-122.308;2022-09-12T02:54:18;101474.03;;;20.87;58.30
69060;BME280;56135;37.534;-122.308;2022-09-12T02:56:45;101468.66;;;20.66;60.04
69060;BME280;56135;37.534;-122.308;2022-09-12T02:59:22;101472.25;;;20.65;59.30
69060;BME280;56135;37.534;-122.308;2022-09-12T03:12:46;101475.59;;;20.29;61.94
69060;BME280;56135;37.534;-122.308;2022-09-12T03:18:50;101482.13;;;20.22;61.91
69060;BME280;56135;37.534;-122.308;2022-09-12T03:21:39;101478.72;;;20.19;62.56
69060;BME280;56135;37.534;-122.308;2022-09-12T03:24:50;101486.19;;;20.10;62.18
69060;BME280;56135;37.534;-122.308;2022-09-12T03:27:12;101488.38;;;20.00;63.23
69060;BME280;56135;37.534;-122.308;2022-09-12T03:29:42;101484.25;;;19.92;63.40
69060;BME280;56135;37.534;-122.308;2022-09-12T03:32:10;101490.88;;;19.83;64.14
69060;BME280;56135;37.534;-122.308;2022-09-12T03:34:37;101492.31;;;19.68;65.24
69060;BME280;56135;37.534;-122.308;2022-09-12T03:37:03;101491.56;;;19.64;65.55
69060;BME280;56135;37.534;-122.308;2022-09-12T03:39:32;101490.75;;;19.62;64.99
69060;BME280;56135;37.534;-122.308;2022-09-12T03:41:58;101495.41;;;19.57;65.33
69060;BME280;56135;37.534;-122.308;2022-09-12T03:44:27;101494.06;;;19.45;65.53
69060;BME280;56135;37.534;-122.308;2022-09-12T03:46:55;101501.25;;;19.45;65.37
69060;BME280;56135;37.534;-122.308;2022-09-12T03:49:21;101500.59;;;19.38;65.56
69060;BME280;56135;37.534;-122.308;2022-09-12T03:51:50;101496.25;;;19.36;65.28
69060;BME280;56135;37.534;-122.308;2022-09-12T03:54:16;101495.38;;;19.35;65.29
69060;BME280;56135;37.534;-122.308;2022-09-12T03:56:45;101497.44;;;19.27;65.33
69060;BME280;56135;37.534;-122.308;2022-09-12T03:59:11;101498.50;;;19.23;65.08
69060;BME280;56135;37.534;-122.308;2022-09-12T04:01:37;101498.63;;;19.20;65.63
69060;BME280;56135;37.534;-122.308;2022-09-12T04:04:07;101503.25;;;19.14;65.61
69060;BME280;56135;37.534;-122.308;2022-09-12T04:06:33;101493.53;;;19.12;65.83
69060;BME280;56135;37.534;-122.308;2022-09-12T04:08:59;101501.63;;;19.10;65.57
69060;BME280;56135;37.534;-122.308;2022-09-12T04:11:25;101500.09;;;19.03;65.48
69060;BME280;56135;37.534;-122.308;2022-09-12T04:13:51;101498.38;;;19.02;65.07
69060;BME280;56135;37.534;-122.308;2022-09-12T04:16:18;101499.34;;;18.99;65.04
69060;BME280;56135;37.534;-122.308;2022-09-12T04:18:44;101497.75;;;18.94;65.21
69060;BME280;56135;37.534;-122.308;2022-09-12T04:21:17;101497.06;;;18.89;65.70
69060;BME280;56135;37.534;-122.308;2022-09-12T04:23:44;101503.41;;;18.84;65.58
69060;BME280;56135;37.534;-122.308;2022-09-12T04:26:11;101501.88;;;18.77;65.95
69060;BME280;56135;37.534;-122.308;2022-09-12T04:28:38;101502.13;;;18.70;66.22
69060;BME280;56135;37.534;-122.308;2022-09-12T04:31:05;101504.03;;;18.66;66.63
69060;BME280;56135;37.534;-122.308;2022-09-12T04:33:35;101504.28;;;18.60;66.75
69060;BME280;56135;37.534;-122.308;2022-09-12T04:36:03;101511.56;;;18.55;66.54
69060;BME280;56135;37.534;-122.308;2022-09-12T04:38:30;101506.38;;;18.50;66.02
69060;BME280;56135;37.534;-122.308;2022-09-12T04:40:57;101502.06;;;18.46;66.28
69060;BME280;56135;37.534;-122.308;2022-09-12T04:43:23;101506.69;;;18.41;66.21
69060;BME280;56135;37.534;-122.308;2022-09-12T04:45:49;101506.00;;;18.34;66.46
69060;BME280;56135;37.534;-122.308;2022-09-12T04:48:15;101503.56;;;18.28;67.19
69060;BME280;56135;37.534;-122.308;2022-09-12T04:50:41;101495.66;;;18.23;67.27
69060;BME280;56135;37.534;-122.308;2022-09-12T04:53:07;101496.69;;;18.19;67.41
69060;BME280;56135;37.534;-122.308;2022-09-12T04:55:34;101496.03;;;18.12;67.48
69060;BME280;56135;37.534;-122.308;2022-09-12T04:58:01;101494.44;;;18.07;67.55
69060;BME280;56135;37.534;-122.308;2022-09-12T05:00:27;101491.94;;;18.00;67.90
69060;BME280;56135;37.534;-122.308;2022-09-12T05:02:53;101489.44;;;17.96;67.80
69060;BME280;56135;37.534;-122.308;2022-09-12T05:05:19;101494.06;;;17.89;67.55
69060;BME280;56135;37.534;-122.308;2022-09-12T05:07:46;101485.25;;;17.86;67.69
69060;BME280;56135;37.534;-122.308;2022-09-12T05:10:12;101485.41;;;17.81;68.08
69060;BME280;56135;37.534;-122.308;2022-09-12T05:12:38;101485.59;;;17.75;68.34
69060;BME280;56135;37.534;-122.308;2022-09-12T05:15:05;101482.19;;;17.70;68.00
69060;BME280;56135;37.534;-122.308;2022-09-12T05:17:31;101484.94;;;17.68;68.61
69060;BME280;56135;37.534;-122.308;2022-09-12T05:19:58;101480.53;;;17.65;68.26
69060;BME280;56135;37.534;-122.308;2022-09-12T05:22:25;101481.50;;;17.63;67.95
69060;BME280;56135;37.534;-122.308;2022-09-12T05:24:51;101487.81;;;17.60;68.75
69060;BME280;56135;37.534;-122.308;2022-09-12T05:27:17;101486.16;;;17.56;68.57
69060;BME280;56135;37.534;-122.308;2022-09-12T05:29:44;101481.78;;;17.54;68.51
69060;BME280;56135;37.534;-122.308;2022-09-12T05:32:10;101473.00;;;17.50;68.82
69060;BME280;56135;37.534;-122.308;2022-09-12T05:34:38;101468.56;;;17.49;68.94
69060;BME280;56135;37.534;-122.308;2022-09-12T05:37:04;101473.09;;;17.47;69.03
69060;BME280;56135;37.534;-122.308;2022-09-12T05:39:30;101474.91;;;17.45;68.68
69060;BME280;56135;37.534;-122.308;2022-09-12T05:41:56;101469.63;;;17.43;68.48
69060;BME280;56135;37.534;-122.308;2022-09-12T05:44:22;101474.91;;;17.45;68.45
69060;BME280;56135;37.534;-122.308;2022-09-12T05:46:49;101481.19;;;17.44;68.49
69060;BME280;56135;37.534;-122.308;2022-09-12T05:49:16;101474.97;;;17.43;69.03
69060;BME280;56135;37.534;-122.308;2022-09-12T05:51:44;101472.34;;;17.42;68.48
69060;BME280;56135;37.534;-122.308;2022-09-12T05:54:13;101470.59;;;17.41;69.12
69060;BME280;56135;37.534;-122.308;2022-09-12T05:56:41;101475.94;;;17.41;69.01
69060;BME280;56135;37.534;-122.308;2022-09-12T05:59:14;101481.28;;;17.41;69.46
69060;BME280;56135;37.534;-122.308;2022-09-12T06:01:41;101483.03;;;17.42;69.60
69060;BME280;56135;37.534;-122.308;2022-09-12T06:04:08;101476.78;;;17.43;69.35
69060;BME280;56135;37.534;-122.308;2022-09-12T06:06:38;101476.72;;;17.44;69.22
69060;BME280;56135;37.534;-122.308;2022-09-12T06:09:06;101475.84;;;17.44;69.77
69060;BME280;56135;37.534;-122.308;2022-09-12T06:11:34;101480.25;;;17.45;69.65
69060;BME280;56135;37.534;-122.308;2022-09-12T06:14:00;101477.59;;;17.45;69.67
69060;BME280;56135;37.534;-122.308;2022-09-12T06:16:31;101466.91;;;17.45;69.79
69060;BME280;56135;37.534;-122.308;2022-09-12T06:19:00;101465.06;;;17.47;70.34
69060;BME280;56135;37.534;-122.308;2022-09-12T06:21:27;101473.16;;;17.45;70.26
69060;BME280;56135;37.534;-122.308;2022-09-12T06:23:55;101476.63;;;17.47;69.79
69060;BME280;56135;37.534;-122.308;2022-09-12T06:26:24;101478.44;;;17.47;69.75
69060;BME280;56135;37.534;-122.308;2022-09-12T06:28:51;101484.63;;;17.47;69.63
69060;BME280;56135;37.534;-122.308;2022-09-12T06:31:21;101477.59;;;17.45;69.38
69060;BME280;56135;37.534;-122.308;2022-09-12T06:33:50;101476.69;;;17.46;69.59
69060;BME280;56135;37.534;-122.308;2022-09-12T06:36:19;101469.56;;;17.45;69.70
69060;BME280;56135;37.534;-122.308;2022-09-12T06:38:46;101469.56;;;17.45;70.16
69060;BME280;56135;37.534;-122.308;2022-09-12T06:41:15;101479.34;;;17.46;70.54
69060;BME280;56135;37.534;-122.308;2022-09-12T06:43:41;101475.75;;;17.47;70.37
69060;BME280;56135;37.534;-122.308;2022-09-12T06:46:09;101478.31;;;17.50;69.99
69060;BME280;56135;37.534;-122.308;2022-09-12T06:48:35;101473.03;;;17.48;70.35
69060;BME280;56135;37.534;-122.308;2022-09-12T06:51:04;101471.16;;;17.52;70.51
69060;BME280;56135;37.534;-122.308;2022-09-12T06:53:32;101481.78;;;17.54;70.12
69060;BME280;56135;37.534;-122.308;2022-09-12T06:56:19;101489.66;;;17.58;70.54
69060;BME280;56135;37.534;-122.308;2022-09-12T06:58:47;101479.88;;;17.57;70.38
69060;BME280;56135;37.534;-122.308;2022-09-12T07:01:15;101480.81;;;17.56;70.08
69060;BME280;56135;37.534;-122.308;2022-09-12T07:03:46;101473.63;;;17.58;69.47
69060;BME280;56135;37.534;-122.308;2022-09-12T07:06:15;101467.38;;;17.59;70.22
69060;BME280;56135;37.534;-122.308;2022-09-12T07:08:42;101466.50;;;17.59;70.23
69060;BME280;56135;37.534;-122.308;2022-09-12T07:13:41;101472.72;;;17.59;70.38
69060;BME280;56135;37.534;-122.308;2022-09-12T07:16:08;101471.84;;;17.59;70.78
69060;BME280;56135;37.534;-122.308;2022-09-12T07:18:38;101478.06;;;17.59;70.81
69060;BME280;56135;37.534;-122.308;2022-09-12T07:21:07;101470.88;;;17.61;70.63
69060;BME280;56135;37.534;-122.308;2022-09-12T07:23:35;101478.91;;;17.61;70.93
69060;BME280;56135;37.534;-122.308;2022-09-12T07:26:01;101468.22;;;17.61;70.79
69060;BME280;56135;37.534;-122.308;2022-09-12T07:28:29;101460.09;;;17.64;70.40
69060;BME280;56135;37.534;-122.308;2022-09-12T07:30:56;101458.22;;;17.66;70.77
69060;BME280;56135;37.534;-122.308;2022-09-12T07:33:25;101455.56;;;17.66;70.32
69060;BME280;56135;37.534;-122.308;2022-09-12T07:35:52;101455.56;;;17.66;71.04
69060;BME280;56135;37.534;-122.308;2022-09-12T07:38:19;101449.34;;;17.66;70.61
69060;BME280;56135;37.534;-122.308;2022-09-12T07:40:45;101455.66;;;17.63;71.05
69060;BME280;56135;37.534;-122.308;2022-09-12T07:43:11;101453.81;;;17.65;71.23
69060;BME280;56135;37.534;-122.308;2022-09-12T07:45:37;101446.72;;;17.64;71.63
69060;BME280;56135;37.534;-122.308;2022-09-12T07:48:07;101445.88;;;17.62;72.32
69060;BME280;56135;37.534;-122.308;2022-09-12T07:50:34;101454.78;;;17.63;72.47
69060;BME280;56135;37.534;-122.308;2022-09-12T07:53:04;101456.50;;;17.65;72.07
69060;BME280;56135;37.534;-122.308;2022-09-12T07:55:31;101444.09;;;17.63;72.35
69060;BME280;56135;37.534;-122.308;2022-09-12T07:57:57;101445.03;;;17.62;72.56
69060;BME280;56135;37.534;-122.308;2022-09-12T08:00:23;101442.34;;;17.62;72.56
69060;BME280;56135;37.534;-122.308;2022-09-12T08:02:53;101443.31;;;17.59;72.16
69060;BME280;56135;37.534;-122.308;2022-09-12T08:05:19;101446.03;;;17.58;72.64
69060;BME280;56135;37.534;-122.308;2022-09-12T08:07:46;101433.66;;;17.55;72.65
69060;BME280;56135;37.534;-122.308;2022-09-12T08:10:12;101443.50;;;17.53;72.89
69060;BME280;56135;37.534;-122.308;2022-09-12T08:12:38;101437.25;;;17.54;72.66
69060;BME280;56135;37.534;-122.308;2022-09-12T08:15:04;101430.19;;;17.51;73.39
69060;BME280;56135;37.534;-122.308;2022-09-12T08:17:30;101439.09;;;17.52;73.20
69060;BME280;56135;37.534;-122.308;2022-09-12T08:19:56;101429.41;;;17.48;73.45
69060;BME280;56135;37.534;-122.308;2022-09-12T08:22:22;101435.69;;;17.47;73.58
69060;BME280;56135;37.534;-122.308;2022-09-12T08:24:50;101432.19;;;17.45;73.24
69060;BME280;56135;37.534;-122.308;2022-09-12T08:27:16;101432.13;;;17.46;73.31
69060;BME280;56135;37.534;-122.308;2022-09-12T08:29:42;101429.50;;;17.45;73.29
69060;BME280;56135;37.534;-122.308;2022-09-12T08:32:08;101422.41;;;17.44;73.65
69060;BME280;56135;37.534;-122.308;2022-09-12T08:34:35;101424.28;;;17.42;74.01
69060;BME280;56135;37.534;-122.308;2022-09-12T08:37:01;101428.72;;;17.43;73.96
69060;BME280;56135;37.534;-122.308;2022-09-12T08:39:28;101420.72;;;17.41;74.43
69060;BME280;56135;37.534;-122.308;2022-09-12T08:42:00;101417.28;;;17.38;74.14
69060;BME280;56135;37.534;-122.308;2022-09-12T08:47:29;101416.50;;;17.34;74.15
69060;BME280;56135;37.534;-122.308;2022-09-12T08:52:55;101411.16;;;17.34;74.02
69060;BME280;56135;37.534;-122.308;2022-09-12T08:55:39;101416.53;;;17.32;74.55
69060;BME280;56135;37.534;-122.308;2022-09-12T08:58:13;101410.38;;;17.30;74.78
69060;BME280;56135;37.534;-122.308;2022-09-12T09:00:57;101403.25;;;17.29;74.70
69060;BME280;56135;37.534;-122.308;2022-09-12T09:14:24;101388.53;;;17.17;75.56
69060;BME280;56135;37.534;-122.308;2022-09-12T09:17:20;101389.44;;;17.16;75.42
69060;BME280;56135;37.534;-122.308;2022-09-12T09:20:23;101381.44;;;17.16;75.87
69060;BME280;56135;37.534;-122.308;2022-09-12T09:25:55;101387.78;;;17.12;76.05
69060;BME280;56135;37.534;-122.308;2022-09-12T09:28:35;101393.13;;;17.12;75.94
69060;BME280;56135;37.534;-122.308;2022-09-12T09:31:04;101393.06;;;17.14;75.55
69060;BME280;56135;37.534;-122.308;2022-09-12T09:33:36;101388.69;;;17.11;75.72
69060;BME280;56135;37.534;-122.308;2022-09-12T09:42:13;101384.31;;;17.09;76.55
69060;BME280;56135;37.534;-122.308;2022-09-12T09:44:41;101390.53;;;17.09;76.56
69060;BME280;56135;37.534;-122.308;2022-09-12T09:47:10;101383.53;;;17.05;75.99
69060;BME280;56135;37.534;-122.308;2022-09-12T09:49:37;101383.53;;;17.05;76.04
69060;BME280;56135;37.534;-122.308;2022-09-12T09:52:04;101386.25;;;17.04;76.19
69060;BME280;56135;37.534;-122.308;2022-09-12T09:54:38;101379.09;;;17.06;76.01
69060;BME280;56135;37.534;-122.308;2022-09-12T10:00:23;101381.88;;;17.01;76.71
69060;BME280;56135;37.534;-122.308;2022-09-12T10:05:50;101379.34;;;16.96;77.32
69060;BME280;56135;37.534;-122.308;2022-09-12T10:08:39;101377.59;;;16.95;76.33
69060;BME280;56135;37.534;-122.308;2022-09-12T10:11:25;101373.97;;;16.98;76.77
69060;BME280;56135;37.534;-122.308;2022-09-12T10:13:55;101375.84;;;16.94;77.18
69060;BME280;56135;37.534;-122.308;2022-09-12T10:16:33;101374.03;;;16.96;77.38
69060;BME280;56135;37.534;-122.308;2022-09-12T10:19:02;101371.47;;;16.92;77.32
69060;BME280;56135;37.534;-122.308;2022-09-12T10:21:34;101375.94;;;16.91;77.42
69060;BME280;56135;37.534;-122.308;2022-09-12T10:24:10;101374.97;;;16.94;76.88
69060;BME280;56135;37.534;-122.308;2022-09-12T10:26:41;101383.03;;;16.92;77.80
69060;BME280;56135;37.534;-122.308;2022-09-12T10:29:16;101375.03;;;16.92;76.80
69060;BME280;56135;37.534;-122.308;2022-09-12T10:31:50;101374.19;;;16.90;77.27
69060;BME280;56135;37.534;-122.308;2022-09-12T10:34:42;101375.13;;;16.88;77.21
69060;BME280;56135;37.534;-122.308;2022-09-12T10:37:17;101369.78;;;16.88;77.59
69060;BME280;56135;37.534;-122.308;2022-09-12T10:39:50;101366.25;;;16.87;78.23
69060;BME280;56135;37.534;-122.308;2022-09-12T10:42:44;101362.75;;;16.85;78.54
69060;BME280;56135;37.534;-122.308;2022-09-12T10:47:54;101362.03;;;16.78;80.01
69060;BME280;56135;37.534;-122.308;2022-09-12T10:50:29;101369.13;;;16.79;79.17
69060;BME280;56135;37.534;-122.308;2022-09-12T10:53:21;101365.56;;;16.79;79.57
69060;BME280;56135;37.534;-122.308;2022-09-12T10:56:15;101367.44;;;16.77;79.65
69060;BME280;56135;37.534;-122.308;2022-09-12T11:02:00;101373.81;;;16.71;80.32
69060;BME280;56135;37.534;-122.308;2022-09-12T11:05:01;101363.16;;;16.70;80.11
69060;BME280;56135;37.534;-122.308;2022-09-12T11:07:45;101363.16;;;16.70;80.40
69060;BME280;56135;37.534;-122.308;2022-09-12T11:10:29;101356.97;;;16.69;79.70
69060;BME280;56135;37.534;-122.308;2022-09-12T11:16:06;101355.25;;;16.66;80.11
69060;BME280;56135;37.534;-122.308;2022-09-12T11:18:53;101353.56;;;16.64;79.94
69060;BME280;56135;37.534;-122.308;2022-09-12T11:21:33;101356.22;;;16.64;80.21
69060;BME280;56135;37.534;-122.308;2022-09-12T11:30:02;101354.56;;;16.60;80.07
69060;BME280;56135;37.534;-122.308;2022-09-12T11:32:50;101358.09;;;16.60;80.26
69060;BME280;56135;37.534;-122.308;2022-09-12T11:35:29;101351.09;;;16.56;80.41
69060;BME280;56135;37.534;-122.308;2022-09-12T11:45:49;101360.91;;;16.56;79.77
69060;BME280;56135;37.534;-122.308;2022-09-12T11:48:32;101362.72;;;16.55;80.02
69060;BME280;56135;37.534;-122.308;2022-09-12T11:51:04;101357.38;;;16.54;79.57
69060;BME280;56135;37.534;-122.308;2022-09-12T11:53:38;101351.34;;;16.47;80.11
69060;BME280;56135;37.534;-122.308;2022-09-12T11:56:14;101347.81;;;16.46;79.75
69060;BME280;56135;37.534;-122.308;2022-09-12T11:58:48;101351.34;;;16.47;79.39
69060;BME280;56135;37.534;-122.308;2022-09-12T12:01:26;101354.91;;;16.47;79.87
69060;BME280;56135;37.534;-122.308;2022-09-12T12:03:55;101356.78;;;16.44;79.72
69060;BME280;56135;37.534;-122.308;2022-09-12T12:08:48;101355.88;;;16.45;79.55
69060;BME280;56135;37.534;-122.308;2022-09-12T12:14:52;101355.13;;;16.40;80.20
69060;BME280;56135;37.534;-122.308;2022-09-12T12:17:21;101351.59;;;16.38;80.07
69060;BME280;56135;37.534;-122.308;2022-09-12T12:20:14;101354.28;;;16.38;80.48
69060;BME280;56135;37.534;-122.308;2022-09-12T12:22:52;101345.50;;;16.34;80.69
69060;BME280;56135;37.534;-122.308;2022-09-12T12:35:43;101342.03;;;16.30;80.93
69060;BME280;56135;37.534;-122.308;2022-09-12T12:38:35;101344.75;;;16.29;81.02
69060;BME280;56135;37.534;-122.308;2022-09-12T12:43:45;101331.50;;;16.26;81.45
69060;BME280;56135;37.534;-122.308;2022-09-12T12:46:14;101332.44;;;16.25;81.55
69060;BME280;56135;37.534;-122.308;2022-09-12T12:51:46;101337.81;;;16.22;81.65
69060;BME280;56135;37.534;-122.308;2022-09-12T12:54:46;101336.97;;;16.21;81.56
69060;BME280;56135;37.534;-122.308;2022-09-12T13:00:24;101328.22;;;16.16;82.08
69060;BME280;56135;37.534;-122.308;2022-09-12T13:03:00;101326.44;;;16.15;82.17
69060;BME280;56135;37.534;-122.308;2022-09-12T13:05:29;101335.34;;;16.15;82.02
69060;BME280;56135;37.534;-122.308;2022-09-12T13:08:25;101337.97;;;16.17;81.53
69060;BME280;56135;37.534;-122.308;2022-09-12T13:11:03;101341.50;;;16.17;81.79
69060;BME280;56135;37.534;-122.308;2022-09-12T13:16:04;101342.44;;;16.15;81.72
69060;BME280;56135;37.534;-122.308;2022-09-12T13:18:40;101346.91;;;16.14;81.67
69060;BME280;56135;37.534;-122.308;2022-09-12T13:21:16;101346.03;;;16.14;82.24
69060;BME280;56135;37.534;-122.308;2022-09-12T13:23:42;101345.13;;;16.15;81.63
69060;BME280;56135;37.534;-122.308;2022-09-12T13:26:23;101345.13;;;16.15;81.81
69060;BME280;56135;37.534;-122.308;2022-09-12T13:29:13;101344.19;;;16.16;82.24
69060;BME280;56135;37.534;-122.308;2022-09-12T13:31:41;101346.06;;;16.12;82.53
69060;BME280;56135;37.534;-122.308;2022-09-12T13:34:08;101344.28;;;16.13;82.77
69060;BME280;56135;37.534;-122.308;2022-09-12T13:39:28;101343.44;;;16.11;82.56
69060;BME280;56135;37.534;-122.308;2022-09-12T13:44:51;101353.28;;;16.09;83.04
69060;BME280;56135;37.534;-122.308;2022-09-12T13:47:25;101347.06;;;16.08;83.02
69060;BME280;56135;37.534;-122.308;2022-09-12T13:49:53;101351.47;;;16.09;83.18
69060;BME280;56135;37.534;-122.308;2022-09-12T13:52:23;101354.25;;;16.06;83.31
69060;BME280;56135;37.534;-122.308;2022-09-12T13:54:55;101358.69;;;16.06;83.13
69060;BME280;56135;37.534;-122.308;2022-09-12T13:57:32;101357.78;;;16.07;83.17
69060;BME280;56135;37.534;-122.308;2022-09-12T14:00:01;101364.84;;;16.08;82.99
69060;BME280;56135;37.534;-122.308;2022-09-12T14:02:29;101362.16;;;16.09;83.04
69060;BME280;56135;37.534;-122.308;2022-09-12T14:04:56;101364.72;;;16.12;83.13
69060;BME280;56135;37.534;-122.308;2022-09-12T14:08:05;101366.53;;;16.12;82.97
69060;BME280;56135;37.534;-122.308;2022-09-12T14:10:33;101368.25;;;16.14;82.50
69060;BME280;56135;37.534;-122.308;2022-09-12T14:13:08;101368.16;;;16.17;82.52
69060;BME280;56135;37.534;-122.308;2022-09-12T14:15:37;101368.06;;;16.21;82.18
69060;BME280;56135;37.534;-122.308;2022-09-12T14:18:05;101370.72;;;16.22;81.97
69060;BME280;56135;37.534;-122.308;2022-09-12T14:20:37;101374.13;;;16.27;82.44
69060;BME280;56135;37.534;-122.308;2022-09-12T14:23:29;101379.28;;;16.33;81.42
69060;BME280;56135;37.534;-122.308;2022-09-12T14:25:57;101370.31;;;16.36;81.78
69060;BME280;56135;37.534;-122.308;2022-09-12T14:28:25;101373.84;;;16.38;81.58
69060;BME280;56135;37.534;-122.308;2022-09-12T14:33:50;101371.72;;;16.49;81.04
69060;BME280;56135;37.534;-122.308;2022-09-12T14:36:20;101369.88;;;16.53;80.73
69060;BME280;56135;37.534;-122.308;2022-09-12T14:41:47;101369.50;;;16.65;80.35
69060;BME280;56135;37.534;-122.308;2022-09-12T14:44:22;101364.97;;;16.69;80.26
69060;BME280;56135;37.534;-122.308;2022-09-12T14:46:50;101370.16;;;16.75;80.11
69060;BME280;56135;37.534;-122.308;2022-09-12T14:49:31;101368.25;;;16.79;79.77
69060;BME280;56135;37.534;-122.308;2022-09-12T14:52:00;101364.44;;;16.88;79.28
69060;BME280;56135;37.534;-122.308;2022-09-12T14:57:03;101364.16;;;16.98;78.55
69060;BME280;56135;37.534;-122.308;2022-09-12T14:59:38;101366.50;;;17.09;78.42
69060;BME280;56135;37.534;-122.308;2022-09-12T15:04:46;101366.00;;;17.26;77.68